sensor_id;sensor_type;location;lat;lon;timestamp;temperature;humidity
68257;DHT22;55069;51.568;4.656;2023-03-16T00:01:16;5.79;74.62
68257;DHT22;55069;51.568;4.656;2023-03-16T00:03:41;5.81;74.28
68257;DHT22;55069;51.568;4.656;2023-03-16T00:06:08;5.85;73.86
68257;DHT22;55069;51.568;4.656;2023-03-16T00:08:33;5.85;75.06
68257;DHT22;55069;51.568;4.656;2023-03-16T00:11:00;5.79;75.09
68257;DHT22;55069;51.568;4.656;2023-03-16T00:13:27;5.85;74.56
68257;DHT22;55069;51.568;4.656;2023-03-16T00:16:00;5.85;74.70
68257;DHT22;55069;51.568;4.656;2023-03-16T00:18:29;5.88;75.06
68257;DHT22;55069;51.568;4.656;2023-03-16T00:20:59;5.91;74.70
68257;DHT22;55069;51.568;4.656;2023-03-16T00:23:29;5.94;74.72
68257;DHT22;55069;51.568;4.656;2023-03-16T00:25:59;5.92;75.15
68257;DHT22;55069;51.568;4.656;2023-03-16T00:28:28;5.91;75.81
68257;DHT22;55069;51.568;4.656;2023-03-16T00:31:00;5.92;75.80
68257;DHT22;55069;51.568;4.656;2023-03-16T00:33:26;5.90;75.71
68257;DHT22;55069;51.568;4.656;2023-03-16T00:35:52;5.90;75.86
68257;DHT22;55069;51.568;4.656;2023-03-16T00:38:27;5.88;75.69
68257;DHT22;55069;51.568;4.656;2023-03-16T00:40:53;5.87;75.95
68257;DHT22;55069;51.568;4.656;2023-03-16T00:43:19;5.85;76.15
68257;DHT22;55069;51.568;4.656;2023-03-16T00:45:45;5.82;76.28
68257;DHT22;55069;51.568;4.656;2023-03-16T00:48:10;5.88;76.17
68257;DHT22;55069;51.568;4.656;2023-03-16T00:50:37;5.90;75.68
68257;DHT22;55069;51.568;4.656;2023-03-16T00:53:03;5.91;75.82
68257;DHT22;55069;51.568;4.656;2023-03-16T00:55:29;5.90;75.90
68257;DHT22;55069;51.568;4.656;2023-03-16T00:57:54;5.90;75.64
68257;DHT22;55069;51.568;4.656;2023-03-16T01:00:20;5.94;75.62
68257;DHT22;55069;51.568;4.656;2023-03-16T01:02:47;5.95;75.53
68257;DHT22;55069;51.568;4.656;2023-03-16T01:05:13;5.94;75.73
68257;DHT22;55069;51.568;4.656;2023-03-16T01:07:40;5.92;75.34
68257;DHT22;55069;51.568;4.656;2023-03-16T01:10:07;5.87;76.02
68257;DHT22;55069;51.568;4.656;2023-03-16T01:12:33;5.90;75.41
68257;DHT22;55069;51.568;4.656;2023-03-16T01:14:59;5.92;75.08
68257;DHT22;55069;51.568;4.656;2023-03-16T01:17:25;5.87;75.72
68257;DHT22;55069;51.568;4.656;2023-03-16T01:19:51;5.85;76.87
68257;DHT22;55069;51.568;4.656;2023-03-16T01:22:17;5.85;76.48
68257;DHT22;55069;51.568;4.656;2023-03-16T01:24:44;5.88;76.82
68257;DHT22;55069;51.568;4.656;2023-03-16T01:27:10;5.84;77.25
68257;DHT22;55069;51.568;4.656;2023-03-16T01:29:37;5.85;77.31
68257;DHT22;55069;51.568;4.656;2023-03-16T01:32:05;5.87;76.99
68257;DHT22;55069;51.568;4.656;2023-03-16T01:34:33;5.85;77.42
68257;DHT22;55069;51.568;4.656;2023-03-16T01:36:59;5.88;77.47
68257;DHT22;55069;51.568;4.656;2023-03-16T01:39:43;5.88;78.68
68257;DHT22;55069;51.568;4.656;2023-03-16T01:42:10;5.79;79.24
68257;DHT22;55069;51.568;4.656;2023-03-16T01:44:58;5.77;79.17
68257;DHT22;55069;51.568;4.656;2023-03-16T01:47:33;5.78;79.59
68257;DHT22;55069;51.568;4.656;2023-03-16T01:50:05;5.75;79.96
68257;DHT22;55069;51.568;4.656;2023-03-16T01:52:35;5.71;79.94
68257;DHT22;55069;51.568;4.656;2023-03-16T01:55:05;5.74;80.04
68257;DHT22;55069;51.568;4.656;2023-03-16T01:57:36;5.70;81.03
68257;DHT22;55069;51.568;4.656;2023-03-16T02:00:10;5.67;80.72
68257;DHT22;55069;51.568;4.656;2023-03-16T02:02:55;5.67;80.36
68257;DHT22;55069;51.568;4.656;2023-03-16T02:05:35;5.68;81.18
68257;DHT22;55069;51.568;4.656;2023-03-16T02:08:03;5.67;81.26
68257;DHT22;55069;51.568;4.656;2023-03-16T02:10:30;5.63;81.13
68257;DHT22;55069;51.568;4.656;2023-03-16T02:12:56;5.63;81.56
68257;DHT22;55069;51.568;4.656;2023-03-16T02:15:23;5.63;81.53
68257;DHT22;55069;51.568;4.656;2023-03-16T02:17:49;5.57;81.70
68257;DHT22;55069;51.568;4.656;2023-03-16T02:22:53;5.51;82.19
68257;DHT22;55069;51.568;4.656;2023-03-16T02:25:23;5.50;82.34
68257;DHT22;55069;51.568;4.656;2023-03-16T02:30:21;5.50;82.43
68257;DHT22;55069;51.568;4.656;2023-03-16T02:32:59;5.48;82.79
68257;DHT22;55069;51.568;4.656;2023-03-16T02:35:26;5.53;82.34
68257;DHT22;55069;51.568;4.656;2023-03-16T02:37:51;5.60;82.38
68257;DHT22;55069;51.568;4.656;2023-03-16T02:40:23;5.51;82.33
68257;DHT22;55069;51.568;4.656;2023-03-16T02:43:03;5.47;82.56
68257;DHT22;55069;51.568;4.656;2023-03-16T02:45:43;5.48;82.55
68257;DHT22;55069;51.568;4.656;2023-03-16T02:48:15;5.51;82.83
68257;DHT22;55069;51.568;4.656;2023-03-16T02:50:45;5.53;82.89
68257;DHT22;55069;51.568;4.656;2023-03-16T02:53:13;5.47;82.61
68257;DHT22;55069;51.568;4.656;2023-03-16T02:55:38;5.47;82.94
68257;DHT22;55069;51.568;4.656;2023-03-16T02:58:04;5.48;82.85
68257;DHT22;55069;51.568;4.656;2023-03-16T03:00:30;5.50;82.84
68257;DHT22;55069;51.568;4.656;2023-03-16T03:02:57;5.51;82.68
68257;DHT22;55069;51.568;4.656;2023-03-16T03:05:23;5.54;82.40
68257;DHT22;55069;51.568;4.656;2023-03-16T03:07:49;5.51;82.42
68257;DHT22;55069;51.568;4.656;2023-03-16T03:10:15;5.53;82.59
68257;DHT22;55069;51.568;4.656;2023-03-16T03:12:41;5.50;83.29
68257;DHT22;55069;51.568;4.656;2023-03-16T03:15:09;5.51;83.03
68257;DHT22;55069;51.568;4.656;2023-03-16T03:17:58;5.51;83.31
68257;DHT22;55069;51.568;4.656;2023-03-16T03:20:24;5.53;83.03
68257;DHT22;55069;51.568;4.656;2023-03-16T03:22:51;5.60;82.97
68257;DHT22;55069;51.568;4.656;2023-03-16T03:25:18;5.54;83.25
68257;DHT22;55069;51.568;4.656;2023-03-16T03:27:46;5.58;82.89
68257;DHT22;55069;51.568;4.656;2023-03-16T03:30:20;5.57;82.78
68257;DHT22;55069;51.568;4.656;2023-03-16T03:32:47;5.58;83.50
68257;DHT22;55069;51.568;4.656;2023-03-16T03:35:14;5.60;83.34
68257;DHT22;55069;51.568;4.656;2023-03-16T03:37:41;5.70;82.39
68257;DHT22;55069;51.568;4.656;2023-03-16T03:40:08;5.61;83.42
68257;DHT22;55069;51.568;4.656;2023-03-16T03:42:35;5.65;83.25
68257;DHT22;55069;51.568;4.656;2023-03-16T03:45:04;5.64;83.58
68257;DHT22;55069;51.568;4.656;2023-03-16T03:47:30;5.61;84.08
68257;DHT22;55069;51.568;4.656;2023-03-16T03:49:56;5.54;84.30
68257;DHT22;55069;51.568;4.656;2023-03-16T03:52:22;5.57;84.26
68257;DHT22;55069;51.568;4.656;2023-03-16T03:54:48;5.54;84.28
68257;DHT22;55069;51.568;4.656;2023-03-16T03:57:16;5.60;83.82
68257;DHT22;55069;51.568;4.656;2023-03-16T03:59:41;5.58;84.26
68257;DHT22;55069;51.568;4.656;2023-03-16T04:02:11;5.58;83.84
68257;DHT22;55069;51.568;4.656;2023-03-16T04:04:46;5.60;83.97
68257;DHT22;55069;51.568;4.656;2023-03-16T04:07:12;5.55;84.44
68257;DHT22;55069;51.568;4.656;2023-03-16T04:09:39;5.58;84.03
68257;DHT22;55069;51.568;4.656;2023-03-16T04:12:09;5.57;84.20
68257;DHT22;55069;51.568;4.656;2023-03-16T04:14:35;5.60;84.41
68257;DHT22;55069;51.568;4.656;2023-03-16T04:17:05;5.61;84.37
68257;DHT22;55069;51.568;4.656;2023-03-16T04:19:33;5.60;84.58
68257;DHT22;55069;51.568;4.656;2023-03-16T04:21:59;5.55;85.19
68257;DHT22;55069;51.568;4.656;2023-03-16T04:24:25;5.57;85.63
68257;DHT22;55069;51.568;4.656;2023-03-16T04:26:50;5.58;85.63
68257;DHT22;55069;51.568;4.656;2023-03-16T04:29:19;5.55;85.86
68257;DHT22;55069;51.568;4.656;2023-03-16T04:31:45;5.57;85.58
68257;DHT22;55069;51.568;4.656;2023-03-16T04:34:12;5.57;85.97
68257;DHT22;55069;51.568;4.656;2023-03-16T04:36:38;5.61;85.92
68257;DHT22;55069;51.568;4.656;2023-03-16T04:39:05;5.58;86.02
68257;DHT22;55069;51.568;4.656;2023-03-16T04:41:31;5.57;86.28
68257;DHT22;55069;51.568;4.656;2023-03-16T04:44:21;5.58;85.93
68257;DHT22;55069;51.568;4.656;2023-03-16T04:46:48;5.58;86.03
68257;DHT22;55069;51.568;4.656;2023-03-16T04:49:14;5.63;85.82
68257;DHT22;55069;51.568;4.656;2023-03-16T04:51:42;5.60;86.15
68257;DHT22;55069;51.568;4.656;2023-03-16T04:54:17;5.61;86.22
68257;DHT22;55069;51.568;4.656;2023-03-16T04:56:43;5.63;86.22
68257;DHT22;55069;51.568;4.656;2023-03-16T04:59:22;5.65;86.01
68257;DHT22;55069;51.568;4.656;2023-03-16T05:01:56;5.60;86.04
68257;DHT22;55069;51.568;4.656;2023-03-16T05:04:22;5.60;86.32
68257;DHT22;55069;51.568;4.656;2023-03-16T05:06:49;5.64;85.89
68257;DHT22;55069;51.568;4.656;2023-03-16T05:09:19;5.68;85.30
68257;DHT22;55069;51.568;4.656;2023-03-16T05:11:45;5.67;85.96
68257;DHT22;55069;51.568;4.656;2023-03-16T05:14:11;5.61;85.60
68257;DHT22;55069;51.568;4.656;2023-03-16T05:16:51;5.68;85.51
68257;DHT22;55069;51.568;4.656;2023-03-16T05:19:17;5.63;85.90
68257;DHT22;55069;51.568;4.656;2023-03-16T05:21:43;5.63;86.26
68257;DHT22;55069;51.568;4.656;2023-03-16T05:24:10;5.60;86.21
68257;DHT22;55069;51.568;4.656;2023-03-16T05:26:39;5.58;86.44
68257;DHT22;55069;51.568;4.656;2023-03-16T05:29:08;5.61;86.34
68257;DHT22;55069;51.568;4.656;2023-03-16T05:31:34;5.58;86.00
68257;DHT22;55069;51.568;4.656;2023-03-16T05:34:07;5.61;86.25
68257;DHT22;55069;51.568;4.656;2023-03-16T05:36:32;5.58;85.69
68257;DHT22;55069;51.568;4.656;2023-03-16T05:39:05;5.63;86.16
68257;DHT22;55069;51.568;4.656;2023-03-16T05:41:39;5.60;85.76
68257;DHT22;55069;51.568;4.656;2023-03-16T05:44:25;5.63;85.83
68257;DHT22;55069;51.568;4.656;2023-03-16T05:47:11;5.63;85.90
68257;DHT22;55069;51.568;4.656;2023-03-16T05:49:42;5.57;86.50
68257;DHT22;55069;51.568;4.656;2023-03-16T05:52:17;5.57;86.53
68257;DHT22;55069;51.568;4.656;2023-03-16T05:54:42;5.60;86.36
68257;DHT22;55069;51.568;4.656;2023-03-16T05:57:09;5.57;86.80
68257;DHT22;55069;51.568;4.656;2023-03-16T05:59:35;5.55;86.65
68257;DHT22;55069;51.568;4.656;2023-03-16T06:02:02;5.64;86.34
68257;DHT22;55069;51.568;4.656;2023-03-16T06:04:28;5.65;86.52
68257;DHT22;55069;51.568;4.656;2023-03-16T06:06:53;5.63;86.42
68257;DHT22;55069;51.568;4.656;2023-03-16T06:09:22;5.60;86.76
68257;DHT22;55069;51.568;4.656;2023-03-16T06:11:48;5.57;86.52
68257;DHT22;55069;51.568;4.656;2023-03-16T06:14:15;5.60;86.83
68257;DHT22;55069;51.568;4.656;2023-03-16T06:16:41;5.58;86.92
68257;DHT22;55069;51.568;4.656;2023-03-16T06:19:07;5.63;86.28
68257;DHT22;55069;51.568;4.656;2023-03-16T06:21:34;5.67;85.96
68257;DHT22;55069;51.568;4.656;2023-03-16T06:24:06;5.68;85.68
68257;DHT22;55069;51.568;4.656;2023-03-16T06:26:34;5.75;85.70
68257;DHT22;55069;51.568;4.656;2023-03-16T06:29:02;5.75;85.09
68257;DHT22;55069;51.568;4.656;2023-03-16T06:31:28;5.78;85.04
68257;DHT22;55069;51.568;4.656;2023-03-16T06:33:54;5.82;85.75
68257;DHT22;55069;51.568;4.656;2023-03-16T06:36:20;5.90;84.85
68257;DHT22;55069;51.568;4.656;2023-03-16T06:38:51;5.95;84.62
68257;DHT22;55069;51.568;4.656;2023-03-16T06:41:33;5.91;84.46
68257;DHT22;55069;51.568;4.656;2023-03-16T06:44:01;5.95;84.05
68257;DHT22;55069;51.568;4.656;2023-03-16T06:46:27;5.88;84.48
68257;DHT22;55069;51.568;4.656;2023-03-16T06:48:54;5.94;83.73
68257;DHT22;55069;51.568;4.656;2023-03-16T06:51:19;6.02;83.31
68257;DHT22;55069;51.568;4.656;2023-03-16T06:53:46;6.06;83.04
68257;DHT22;55069;51.568;4.656;2023-03-16T06:56:12;6.13;83.24
68257;DHT22;55069;51.568;4.656;2023-03-16T06:58:40;6.15;82.45
68257;DHT22;55069;51.568;4.656;2023-03-16T07:01:06;6.13;83.11
68257;DHT22;55069;51.568;4.656;2023-03-16T07:03:32;6.18;82.48
68257;DHT22;55069;51.568;4.656;2023-03-16T07:06:04;6.28;81.75
68257;DHT22;55069;51.568;4.656;2023-03-16T07:08:30;6.28;81.93
68257;DHT22;55069;51.568;4.656;2023-03-16T07:10:56;6.33;81.65
68257;DHT22;55069;51.568;4.656;2023-03-16T07:13:22;6.30;82.35
68257;DHT22;55069;51.568;4.656;2023-03-16T07:15:51;6.37;81.11
68257;DHT22;55069;51.568;4.656;2023-03-16T07:18:19;6.41;80.66
68257;DHT22;55069;51.568;4.656;2023-03-16T07:20:45;6.50;80.39
68257;DHT22;55069;51.568;4.656;2023-03-16T07:23:12;6.54;80.11
68257;DHT22;55069;51.568;4.656;2023-03-16T07:25:39;6.57;79.81
68257;DHT22;55069;51.568;4.656;2023-03-16T07:28:06;6.66;79.97
68257;DHT22;55069;51.568;4.656;2023-03-16T07:30:37;6.76;79.60
68257;DHT22;55069;51.568;4.656;2023-03-16T07:33:04;6.84;80.31
68257;DHT22;55069;51.568;4.656;2023-03-16T07:35:30;6.94;79.15
68257;DHT22;55069;51.568;4.656;2023-03-16T07:37:57;7.05;77.98
68257;DHT22;55069;51.568;4.656;2023-03-16T07:40:23;7.05;78.36
68257;DHT22;55069;51.568;4.656;2023-03-16T07:42:49;7.15;78.08
68257;DHT22;55069;51.568;4.656;2023-03-16T07:45:25;7.18;77.48
68257;DHT22;55069;51.568;4.656;2023-03-16T07:47:51;7.18;77.39
68257;DHT22;55069;51.568;4.656;2023-03-16T07:50:28;7.19;77.29
68257;DHT22;55069;51.568;4.656;2023-03-16T07:52:54;7.23;77.30
68257;DHT22;55069;51.568;4.656;2023-03-16T07:55:20;7.23;76.95
68257;DHT22;55069;51.568;4.656;2023-03-16T07:57:48;7.20;77.00
68257;DHT22;55069;51.568;4.656;2023-03-16T08:00:24;7.18;76.98
68257;DHT22;55069;51.568;4.656;2023-03-16T08:02:50;7.22;77.27
68257;DHT22;55069;51.568;4.656;2023-03-16T08:05:17;7.29;76.94
68257;DHT22;55069;51.568;4.656;2023-03-16T08:07:47;7.35;76.67
68257;DHT22;55069;51.568;4.656;2023-03-16T08:10:17;7.35;76.69
68257;DHT22;55069;51.568;4.656;2023-03-16T08:12:57;7.45;75.77
68257;DHT22;55069;51.568;4.656;2023-03-16T08:15:23;7.45;76.07
68257;DHT22;55069;51.568;4.656;2023-03-16T08:17:55;7.46;75.93
68257;DHT22;55069;51.568;4.656;2023-03-16T08:20:23;7.53;75.30
68257;DHT22;55069;51.568;4.656;2023-03-16T08:22:49;7.59;75.47
68257;DHT22;55069;51.568;4.656;2023-03-16T08:25:19;7.63;75.60
68257;DHT22;55069;51.568;4.656;2023-03-16T08:27:56;7.78;74.96
68257;DHT22;55069;51.568;4.656;2023-03-16T08:30:23;7.87;74.78
68257;DHT22;55069;51.568;4.656;2023-03-16T08:33:06;7.98;74.42
68257;DHT22;55069;51.568;4.656;2023-03-16T08:35:31;8.06;75.51
68257;DHT22;55069;51.568;4.656;2023-03-16T08:37:58;8.21;74.46
68257;DHT22;55069;51.568;4.656;2023-03-16T08:40:24;8.42;73.29
68257;DHT22;55069;51.568;4.656;2023-03-16T08:42:53;8.53;73.45
68257;DHT22;55069;51.568;4.656;2023-03-16T08:45:20;8.57;72.12
68257;DHT22;55069;51.568;4.656;2023-03-16T08:47:46;8.73;72.33
68257;DHT22;55069;51.568;4.656;2023-03-16T08:50:13;8.90;71.47
68257;DHT22;55069;51.568;4.656;2023-03-16T08:52:39;9.01;71.50
68257;DHT22;55069;51.568;4.656;2023-03-16T08:55:06;8.88;71.42
68257;DHT22;55069;51.568;4.656;2023-03-16T08:57:34;9.03;71.71
68257;DHT22;55069;51.568;4.656;2023-03-16T08:59:59;9.22;70.39
68257;DHT22;55069;51.568;4.656;2023-03-16T09:02:26;9.36;69.66
68257;DHT22;55069;51.568;4.656;2023-03-16T09:04:51;9.38;69.47
68257;DHT22;55069;51.568;4.656;2023-03-16T09:07:18;9.17;69.29
68257;DHT22;55069;51.568;4.656;2023-03-16T09:09:44;9.01;69.16
68257;DHT22;55069;51.568;4.656;2023-03-16T09:12:11;9.00;70.20
68257;DHT22;55069;51.568;4.656;2023-03-16T09:14:37;9.10;69.07
68257;DHT22;55069;51.568;4.656;2023-03-16T09:17:04;9.24;69.85
68257;DHT22;55069;51.568;4.656;2023-03-16T09:19:32;9.38;69.11
68257;DHT22;55069;51.568;4.656;2023-03-16T09:21:58;9.59;67.89
68257;DHT22;55069;51.568;4.656;2023-03-16T09:24:24;9.67;67.72
68257;DHT22;55069;51.568;4.656;2023-03-16T09:26:50;9.90;67.96
68257;DHT22;55069;51.568;4.656;2023-03-16T09:29:16;10.10;65.66
68257;DHT22;55069;51.568;4.656;2023-03-16T09:31:44;10.28;65.90
68257;DHT22;55069;51.568;4.656;2023-03-16T09:34:09;10.30;65.42
68257;DHT22;55069;51.568;4.656;2023-03-16T09:36:36;10.25;65.79
68257;DHT22;55069;51.568;4.656;2023-03-16T09:39:02;10.20;64.99
68257;DHT22;55069;51.568;4.656;2023-03-16T09:44:09;10.13;64.98
68257;DHT22;55069;51.568;4.656;2023-03-16T09:46:45;10.18;65.84
68257;DHT22;55069;51.568;4.656;2023-03-16T09:49:16;10.31;66.37
68257;DHT22;55069;51.568;4.656;2023-03-16T09:56:59;10.66;65.43
68257;DHT22;55069;51.568;4.656;2023-03-16T09:59:26;10.83;64.89
68257;DHT22;55069;51.568;4.656;2023-03-16T10:02:26;10.86;64.30
68257;DHT22;55069;51.568;4.656;2023-03-16T10:05:14;10.97;63.94
68257;DHT22;55069;51.568;4.656;2023-03-16T10:11:23;11.14;63.23
68257;DHT22;55069;51.568;4.656;2023-03-16T10:13:52;11.16;62.76
68257;DHT22;55069;51.568;4.656;2023-03-16T10:16:44;11.24;61.57
68257;DHT22;55069;51.568;4.656;2023-03-16T10:21:53;11.54;62.64
68257;DHT22;55069;51.568;4.656;2023-03-16T10:26:56;11.99;61.06
68257;DHT22;55069;51.568;4.656;2023-03-16T10:29:29;11.90;59.94
68257;DHT22;55069;51.568;4.656;2023-03-16T10:32:06;11.93;60.27
68257;DHT22;55069;51.568;4.656;2023-03-16T10:34:32;12.06;60.71
68257;DHT22;55069;51.568;4.656;2023-03-16T10:37:00;12.14;60.05
68257;DHT22;55069;51.568;4.656;2023-03-16T10:39:35;12.16;59.22
68257;DHT22;55069;51.568;4.656;2023-03-16T10:42:01;12.33;60.68
68257;DHT22;55069;51.568;4.656;2023-03-16T10:44:28;12.61;59.50
68257;DHT22;55069;51.568;4.656;2023-03-16T10:47:00;12.81;59.81
68257;DHT22;55069;51.568;4.656;2023-03-16T10:49:43;12.78;59.01
68257;DHT22;55069;51.568;4.656;2023-03-16T10:52:32;12.77;56.69
68257;DHT22;55069;51.568;4.656;2023-03-16T10:55:25;12.87;58.16
68257;DHT22;55069;51.568;4.656;2023-03-16T10:57:55;12.92;57.02
68257;DHT22;55069;51.568;4.656;2023-03-16T11:00:26;13.00;57.98
68257;DHT22;55069;51.568;4.656;2023-03-16T11:02:54;12.96;57.51
68257;DHT22;55069;51.568;4.656;2023-03-16T11:05:27;12.89;57.24
68257;DHT22;55069;51.568;4.656;2023-03-16T11:08:12;12.82;56.72
68257;DHT22;55069;51.568;4.656;2023-03-16T11:10:45;13.00;58.12
68257;DHT22;55069;51.568;4.656;2023-03-16T11:13:14;13.16;57.74
68257;DHT22;55069;51.568;4.656;2023-03-16T11:15:51;13.00;56.11
68257;DHT22;55069;51.568;4.656;2023-03-16T11:21:04;13.12;57.61
68257;DHT22;55069;51.568;4.656;2023-03-16T11:23:33;13.22;57.14
68257;DHT22;55069;51.568;4.656;2023-03-16T11:26:08;13.26;58.23
68257;DHT22;55069;51.568;4.656;2023-03-16T11:28:38;13.26;56.47
68257;DHT22;55069;51.568;4.656;2023-03-16T11:31:12;13.24;56.02
68257;DHT22;55069;51.568;4.656;2023-03-16T11:33:41;13.15;55.81
68257;DHT22;55069;51.568;4.656;2023-03-16T11:38:59;13.37;55.81
68257;DHT22;55069;51.568;4.656;2023-03-16T11:44:49;13.54;55.25
68257;DHT22;55069;51.568;4.656;2023-03-16T11:47:12;13.67;56.00
68257;DHT22;55069;51.568;4.656;2023-03-16T11:49:54;13.94;55.54
68257;DHT22;55069;51.568;4.656;2023-03-16T11:53:02;14.14;54.25
68257;DHT22;55069;51.568;4.656;2023-03-16T12:06:29;14.11;52.24
68257;DHT22;55069;51.568;4.656;2023-03-16T12:14:40;14.33;52.97
68257;DHT22;55069;51.568;4.656;2023-03-16T12:17:13;14.34;51.39
68257;DHT22;55069;51.568;4.656;2023-03-16T12:19:56;14.30;51.00
68257;DHT22;55069;51.568;4.656;2023-03-16T12:22:35;14.34;52.24
68257;DHT22;55069;51.568;4.656;2023-03-16T12:25:10;14.32;51.08
68257;DHT22;55069;51.568;4.656;2023-03-16T12:27:38;14.47;51.49
68257;DHT22;55069;51.568;4.656;2023-03-16T12:30:40;14.55;51.71
68257;DHT22;55069;51.568;4.656;2023-03-16T12:41:45;14.60;49.95
68257;DHT22;55069;51.568;4.656;2023-03-16T12:50:13;15.01;50.70
68257;DHT22;55069;51.568;4.656;2023-03-16T12:52:45;15.02;49.84
68257;DHT22;55069;51.568;4.656;2023-03-16T12:55:22;15.07;48.32
68257;DHT22;55069;51.568;4.656;2023-03-16T12:57:49;14.85;48.71
68257;DHT22;55069;51.568;4.656;2023-03-16T13:00:39;14.87;48.99
68257;DHT22;55069;51.568;4.656;2023-03-16T13:03:11;15.00;49.07
68257;DHT22;55069;51.568;4.656;2023-03-16T13:05:50;15.09;47.07
68257;DHT22;55069;51.568;4.656;2023-03-16T13:08:18;15.09;47.51
68257;DHT22;55069;51.568;4.656;2023-03-16T13:11:04;15.27;49.90
68257;DHT22;55069;51.568;4.656;2023-03-16T13:13:31;15.32;48.06
68257;DHT22;55069;51.568;4.656;2023-03-16T13:16:08;15.38;48.65
68257;DHT22;55069;51.568;4.656;2023-03-16T13:18:39;15.48;47.68
68257;DHT22;55069;51.568;4.656;2023-03-16T13:26:47;15.28;44.63
68257;DHT22;55069;51.568;4.656;2023-03-16T13:29:30;15.42;47.77
68257;DHT22;55069;51.568;4.656;2023-03-16T13:31:59;15.50;47.41
68257;DHT22;55069;51.568;4.656;2023-03-16T13:34:35;15.34;46.44
68257;DHT22;55069;51.568;4.656;2023-03-16T13:37:02;15.40;47.04
68257;DHT22;55069;51.568;4.656;2023-03-16T13:39:30;15.40;46.90
68257;DHT22;55069;51.568;4.656;2023-03-16T13:42:13;15.43;46.97
68257;DHT22;55069;51.568;4.656;2023-03-16T13:44:41;15.45;47.70
68257;DHT22;55069;51.568;4.656;2023-03-16T13:47:15;15.39;47.19
68257;DHT22;55069;51.568;4.656;2023-03-16T13:49:54;15.36;47.68
68257;DHT22;55069;51.568;4.656;2023-03-16T13:52:29;15.39;47.00
68257;DHT22;55069;51.568;4.656;2023-03-16T13:55:06;15.53;49.22
68257;DHT22;55069;51.568;4.656;2023-03-16T13:57:40;15.49;47.53
68257;DHT22;55069;51.568;4.656;2023-03-16T14:00:19;15.50;45.49
68257;DHT22;55069;51.568;4.656;2023-03-16T14:02:50;15.48;45.83
68257;DHT22;55069;51.568;4.656;2023-03-16T14:05:22;15.53;46.90
68257;DHT22;55069;51.568;4.656;2023-03-16T14:07:49;15.56;47.10
68257;DHT22;55069;51.568;4.656;2023-03-16T14:10:16;15.50;47.91
68257;DHT22;55069;51.568;4.656;2023-03-16T14:13:06;15.42;47.14
68257;DHT22;55069;51.568;4.656;2023-03-16T14:15:35;15.27;46.69
68257;DHT22;55069;51.568;4.656;2023-03-16T14:20:38;15.11;49.00
68257;DHT22;55069;51.568;4.656;2023-03-16T14:23:20;15.22;46.27
68257;DHT22;55069;51.568;4.656;2023-03-16T14:25:47;15.19;46.56
68257;DHT22;55069;51.568;4.656;2023-03-16T14:28:15;15.27;47.08
68257;DHT22;55069;51.568;4.656;2023-03-16T14:31:04;15.27;45.27
68257;DHT22;55069;51.568;4.656;2023-03-16T14:33:33;15.31;45.58
68257;DHT22;55069;51.568;4.656;2023-03-16T14:36:12;15.36;47.59
68257;DHT22;55069;51.568;4.656;2023-03-16T14:38:40;15.11;44.40
68257;DHT22;55069;51.568;4.656;2023-03-16T14:43:53;15.00;45.63
68257;DHT22;55069;51.568;4.656;2023-03-16T14:46:26;15.02;45.50
68257;DHT22;55069;51.568;4.656;2023-03-16T14:49:48;15.09;46.98
68257;DHT22;55069;51.568;4.656;2023-03-16T14:52:00;15.01;47.01
68257;DHT22;55069;51.568;4.656;2023-03-16T14:54:27;15.00;45.99
68257;DHT22;55069;51.568;4.656;2023-03-16T14:56:57;14.95;46.81
68257;DHT22;55069;51.568;4.656;2023-03-16T14:59:24;14.91;45.35
68257;DHT22;55069;51.568;4.656;2023-03-16T15:01:51;14.90;49.28
68257;DHT22;55069;51.568;4.656;2023-03-16T15:04:27;14.97;46.53
68257;DHT22;55069;51.568;4.656;2023-03-16T15:06:53;14.90;44.23
68257;DHT22;55069;51.568;4.656;2023-03-16T15:09:34;14.87;47.00
68257;DHT22;55069;51.568;4.656;2023-03-16T15:12:00;14.76;45.88
68257;DHT22;55069;51.568;4.656;2023-03-16T15:14:26;14.73;45.09
68257;DHT22;55069;51.568;4.656;2023-03-16T15:17:10;14.61;48.25
68257;DHT22;55069;51.568;4.656;2023-03-16T15:19:36;14.52;47.10
68257;DHT22;55069;51.568;4.656;2023-03-16T15:22:02;14.43;51.06
68257;DHT22;55069;51.568;4.656;2023-03-16T15:24:29;14.36;47.52
68257;DHT22;55069;51.568;4.656;2023-03-16T15:26:56;14.34;46.41
68257;DHT22;55069;51.568;4.656;2023-03-16T15:29:22;14.33;49.19
68257;DHT22;55069;51.568;4.656;2023-03-16T15:31:48;14.26;47.73
68257;DHT22;55069;51.568;4.656;2023-03-16T15:34:15;14.28;48.35
68257;DHT22;55069;51.568;4.656;2023-03-16T15:36:41;14.19;47.62
68257;DHT22;55069;51.568;4.656;2023-03-16T15:39:20;14.18;49.88
68257;DHT22;55069;51.568;4.656;2023-03-16T15:41:46;14.26;49.08
68257;DHT22;55069;51.568;4.656;2023-03-16T15:44:12;14.30;55.37
68257;DHT22;55069;51.568;4.656;2023-03-16T15:46:37;14.25;51.08
68257;DHT22;55069;51.568;4.656;2023-03-16T15:49:03;14.26;51.62
68257;DHT22;55069;51.568;4.656;2023-03-16T15:51:29;14.18;48.96
68257;DHT22;55069;51.568;4.656;2023-03-16T15:54:01;14.19;50.24
68257;DHT22;55069;51.568;4.656;2023-03-16T15:56:31;14.22;49.91
68257;DHT22;55069;51.568;4.656;2023-03-16T15:59:04;14.22;49.78
68257;DHT22;55069;51.568;4.656;2023-03-16T16:01:41;14.32;50.50
68257;DHT22;55069;51.568;4.656;2023-03-16T16:04:18;14.53;49.38
68257;DHT22;55069;51.568;4.656;2023-03-16T16:06:48;14.71;49.90
68257;DHT22;55069;51.568;4.656;2023-03-16T16:09:15;14.79;48.26
68257;DHT22;55069;51.568;4.656;2023-03-16T16:11:41;15.12;49.58
68257;DHT22;55069;51.568;4.656;2023-03-16T16:14:21;15.39;47.18
68257;DHT22;55069;51.568;4.656;2023-03-16T16:16:49;15.74;45.83
68257;DHT22;55069;51.568;4.656;2023-03-16T16:19:15;16.01;46.22
68257;DHT22;55069;51.568;4.656;2023-03-16T16:21:41;16.17;45.60
68257;DHT22;55069;51.568;4.656;2023-03-16T16:24:08;16.13;45.02
68257;DHT22;55069;51.568;4.656;2023-03-16T16:26:40;16.01;46.09
68257;DHT22;55069;51.568;4.656;2023-03-16T16:29:16;16.07;45.55
68257;DHT22;55069;51.568;4.656;2023-03-16T16:31:43;15.98;44.90
68257;DHT22;55069;51.568;4.656;2023-03-16T16:34:17;16.01;45.31
68257;DHT22;55069;51.568;4.656;2023-03-16T16:36:43;16.05;45.10
68257;DHT22;55069;51.568;4.656;2023-03-16T16:39:09;16.03;45.15
68257;DHT22;55069;51.568;4.656;2023-03-16T16:41:36;15.94;45.07
68257;DHT22;55069;51.568;4.656;2023-03-16T16:44:03;15.91;45.97
68257;DHT22;55069;51.568;4.656;2023-03-16T16:46:39;15.65;45.79
68257;DHT22;55069;51.568;4.656;2023-03-16T16:49:12;15.39;46.21
68257;DHT22;55069;51.568;4.656;2023-03-16T16:51:39;15.21;47.24
68257;DHT22;55069;51.568;4.656;2023-03-16T16:54:20;14.87;48.50
68257;DHT22;55069;51.568;4.656;2023-03-16T16:56:48;14.55;48.68
68257;DHT22;55069;51.568;4.656;2023-03-16T16:59:20;14.30;49.95
68257;DHT22;55069;51.568;4.656;2023-03-16T17:01:47;14.11;50.05
68257;DHT22;55069;51.568;4.656;2023-03-16T17:04:17;13.92;50.48
68257;DHT22;55069;51.568;4.656;2023-03-16T17:06:44;13.75;50.63
68257;DHT22;55069;51.568;4.656;2023-03-16T17:09:11;13.60;50.59
68257;DHT22;55069;51.568;4.656;2023-03-16T17:11:40;13.53;50.04